sensor_id;sensor_type;location;lat;lon;timestamp;P1;durP1;ratioP1;P2;durP2;ratioP2
8596;SDS011;4336;49.310;8.646;2022-12-18T00:02:17;72.47;;;20.00;;
8596;SDS011;4336;49.310;8.646;2022-12-18T00:04:43;45.10;;;21.60;;
8596;SDS011;4336;49.310;8.646;2022-12-18T00:07:10;42.93;;;19.63;;
8596;SDS011;4336;49.310;8.646;2022-12-18T00:09:36;46.43;;;22.23;;
8596;SDS011;4336;49.310;8.646;2022-12-18T00:12:02;35.43;;;19.50;;
8596;SDS011;4336;49.310;8.646;2022-12-18T00:14:28;41.37;;;18.03;;
8596;SDS011;4336;49.310;8.646;2022-12-18T00:16:54;41.67;;;20.90;;
8596;SDS011;4336;49.310;8.646;2022-12-18T00:19:22;43.10;;;19.17;;
8596;SDS011;4336;49.310;8.646;2022-12-18T00:21:48;39.63;;;19.57;;
8596;SDS011;4336;49.310;8.646;2022-12-18T00:24:14;52.93;;;21.73;;
8596;SDS011;4336;49.310;8.646;2022-12-18T00:26:40;52.47;;;21.57;;
8596;SDS011;4336;49.310;8.646;2022-12-18T00:29:08;42.30;;;19.30;;
8596;SDS011;4336;49.310;8.646;2022-12-18T00:31:35;43.17;;;20.17;;
8596;SDS011;4336;49.310;8.646;2022-12-18T00:34:01;41.03;;;18.53;;
8596;SDS011;4336;49.310;8.646;2022-12-18T00:36:28;38.43;;;21.00;;
8596;SDS011;4336;49.310;8.646;2022-12-18T00:38:55;48.43;;;21.10;;
8596;SDS011;4336;49.310;8.646;2022-12-18T00:41:22;54.77;;;22.73;;
8596;SDS011;4336;49.310;8.646;2022-12-18T00:44:07;38.33;;;19.30;;
8596;SDS011;4336;49.310;8.646;2022-12-18T00:46:34;38.90;;;16.83;;
8596;SDS011;4336;49.310;8.646;2022-12-18T00:49:01;36.13;;;19.20;;
8596;SDS011;4336;49.310;8.646;2022-12-18T00:51:27;37.10;;;20.57;;
8596;SDS011;4336;49.310;8.646;2022-12-18T00:53:53;36.30;;;18.40;;
8596;SDS011;4336;49.310;8.646;2022-12-18T00:56:23;38.93;;;18.40;;
8596;SDS011;4336;49.310;8.646;2022-12-18T00:58:49;42.87;;;21.63;;
8596;SDS011;4336;49.310;8.646;2022-12-18T01:01:15;39.63;;;19.03;;
8596;SDS011;4336;49.310;8.646;2022-12-18T01:03:42;46.63;;;20.57;;
8596;SDS011;4336;49.310;8.646;2022-12-18T01:06:11;45.67;;;20.07;;
8596;SDS011;4336;49.310;8.646;2022-12-18T01:08:37;43.80;;;20.53;;
8596;SDS011;4336;49.310;8.646;2022-12-18T01:11:07;40.47;;;16.93;;
8596;SDS011;4336;49.310;8.646;2022-12-18T01:13:34;40.80;;;20.47;;
8596;SDS011;4336;49.310;8.646;2022-12-18T01:16:00;35.73;;;17.57;;
8596;SDS011;4336;49.310;8.646;2022-12-18T01:18:26;42.27;;;19.83;;
8596;SDS011;4336;49.310;8.646;2022-12-18T01:20:53;36.83;;;18.70;;
8596;SDS011;4336;49.310;8.646;2022-12-18T01:23:19;40.30;;;20.50;;
8596;SDS011;4336;49.310;8.646;2022-12-18T01:25:46;40.13;;;18.53;;
8596;SDS011;4336;49.310;8.646;2022-12-18T01:28:12;36.40;;;18.83;;
8596;SDS011;4336;49.310;8.646;2022-12-18T01:30:39;39.87;;;17.03;;
8596;SDS011;4336;49.310;8.646;2022-12-18T01:33:05;44.83;;;19.47;;
8596;SDS011;4336;49.310;8.646;2022-12-18T01:35:51;40.63;;;18.93;;
8596;SDS011;4336;49.310;8.646;2022-12-18T01:38:17;46.70;;;18.87;;
8596;SDS011;4336;49.310;8.646;2022-12-18T01:40:43;41.57;;;20.10;;
8596;SDS011;4336;49.310;8.646;2022-12-18T01:43:09;45.67;;;21.23;;
8596;SDS011;4336;49.310;8.646;2022-12-18T01:45:35;41.63;;;18.33;;
8596;SDS011;4336;49.310;8.646;2022-12-18T01:48:06;43.90;;;17.80;;
8596;SDS011;4336;49.310;8.646;2022-12-18T01:50:36;38.33;;;18.60;;
8596;SDS011;4336;49.310;8.646;2022-12-18T01:55:35;41.23;;;20.17;;
8596;SDS011;4336;49.310;8.646;2022-12-18T01:58:02;41.63;;;19.80;;
8596;SDS011;4336;49.310;8.646;2022-12-18T02:00:28;41.77;;;19.73;;
8596;SDS011;4336;49.310;8.646;2022-12-18T02:02:55;50.80;;;21.00;;
8596;SDS011;4336;49.310;8.646;2022-12-18T02:05:44;37.00;;;18.67;;
8596;SDS011;4336;49.310;8.646;2022-12-18T02:18:27;37.70;;;17.20;;
8596;SDS011;4336;49.310;8.646;2022-12-18T02:20:55;41.23;;;18.90;;
8596;SDS011;4336;49.310;8.646;2022-12-18T02:28:27;41.43;;;19.90;;
8596;SDS011;4336;49.310;8.646;2022-12-18T02:30:58;48.20;;;19.43;;
8596;SDS011;4336;49.310;8.646;2022-12-18T02:33:27;47.33;;;19.73;;
8596;SDS011;4336;49.310;8.646;2022-12-18T02:35:55;37.30;;;19.17;;
8596;SDS011;4336;49.310;8.646;2022-12-18T02:38:23;33.73;;;19.20;;
8596;SDS011;4336;49.310;8.646;2022-12-18T02:40:52;42.63;;;21.20;;
8596;SDS011;4336;49.310;8.646;2022-12-18T02:43:20;42.17;;;19.73;;
8596;SDS011;4336;49.310;8.646;2022-12-18T02:45:56;37.37;;;17.17;;
8596;SDS011;4336;49.310;8.646;2022-12-18T02:48:33;40.97;;;19.97;;
8596;SDS011;4336;49.310;8.646;2022-12-18T02:51:07;38.70;;;16.10;;
8596;SDS011;4336;49.310;8.646;2022-12-18T02:53:40;36.53;;;17.80;;
8596;SDS011;4336;49.310;8.646;2022-12-18T02:56:18;36.30;;;18.57;;
8596;SDS011;4336;49.310;8.646;2022-12-18T03:01:35;28.83;;;15.47;;
8596;SDS011;4336;49.310;8.646;2022-12-18T03:04:06;39.00;;;21.17;;
8596;SDS011;4336;49.310;8.646;2022-12-18T03:06:35;41.97;;;17.50;;
8596;SDS011;4336;49.310;8.646;2022-12-18T03:09:06;34.43;;;16.23;;
8596;SDS011;4336;49.310;8.646;2022-12-18T03:11:34;36.57;;;17.77;;
8596;SDS011;4336;49.310;8.646;2022-12-18T03:14:22;42.50;;;18.30;;
8596;SDS011;4336;49.310;8.646;2022-12-18T03:16:50;36.47;;;18.63;;
8596;SDS011;4336;49.310;8.646;2022-12-18T03:19:20;42.60;;;19.03;;
8596;SDS011;4336;49.310;8.646;2022-12-18T03:21:56;33.87;;;16.77;;
8596;SDS011;4336;49.310;8.646;2022-12-18T03:24:24;37.50;;;16.40;;
8596;SDS011;4336;49.310;8.646;2022-12-18T03:26:54;37.60;;;16.83;;
8596;SDS011;4336;49.310;8.646;2022-12-18T03:29:29;33.23;;;16.30;;
8596;SDS011;4336;49.310;8.646;2022-12-18T03:31:59;38.63;;;17.00;;
8596;SDS011;4336;49.310;8.646;2022-12-18T03:34:32;36.37;;;16.90;;
8596;SDS011;4336;49.310;8.646;2022-12-18T03:37:02;33.40;;;18.80;;
8596;SDS011;4336;49.310;8.646;2022-12-18T03:39:30;36.63;;;16.37;;
8596;SDS011;4336;49.310;8.646;2022-12-18T03:42:05;33.17;;;17.53;;
8596;SDS011;4336;49.310;8.646;2022-12-18T03:44:45;34.90;;;16.27;;
8596;SDS011;4336;49.310;8.646;2022-12-18T03:52:30;26.97;;;14.67;;
8596;SDS011;4336;49.310;8.646;2022-12-18T03:54:59;29.37;;;15.23;;
8596;SDS011;4336;49.310;8.646;2022-12-18T03:57:26;39.07;;;17.63;;
8596;SDS011;4336;49.310;8.646;2022-12-18T03:59:56;32.47;;;17.00;;
8596;SDS011;4336;49.310;8.646;2022-12-18T04:02:28;35.83;;;18.80;;
8596;SDS011;4336;49.310;8.646;2022-12-18T04:04:59;34.57;;;17.27;;
8596;SDS011;4336;49.310;8.646;2022-12-18T04:07:26;34.00;;;16.87;;
8596;SDS011;4336;49.310;8.646;2022-12-18T04:09:56;35.80;;;16.37;;
8596;SDS011;4336;49.310;8.646;2022-12-18T04:12:26;31.37;;;16.20;;
8596;SDS011;4336;49.310;8.646;2022-12-18T04:14:55;36.77;;;16.50;;
8596;SDS011;4336;49.310;8.646;2022-12-18T04:17:22;36.93;;;18.40;;
8596;SDS011;4336;49.310;8.646;2022-12-18T04:19:48;30.23;;;16.13;;
8596;SDS011;4336;49.310;8.646;2022-12-18T04:22:15;32.83;;;14.53;;
8596;SDS011;4336;49.310;8.646;2022-12-18T04:24:46;41.30;;;19.20;;
8596;SDS011;4336;49.310;8.646;2022-12-18T04:27:23;39.53;;;15.00;;
8596;SDS011;4336;49.310;8.646;2022-12-18T04:29:50;31.17;;;17.30;;
8596;SDS011;4336;49.310;8.646;2022-12-18T04:32:17;40.87;;;18.17;;
8596;SDS011;4336;49.310;8.646;2022-12-18T04:34:43;42.10;;;19.30;;
8596;SDS011;4336;49.310;8.646;2022-12-18T04:37:10;43.27;;;17.17;;
8596;SDS011;4336;49.310;8.646;2022-12-18T04:39:37;30.90;;;17.60;;
8596;SDS011;4336;49.310;8.646;2022-12-18T04:42:09;38.20;;;18.70;;
8596;SDS011;4336;49.310;8.646;2022-12-18T04:44:36;29.60;;;14.47;;
8596;SDS011;4336;49.310;8.646;2022-12-18T04:47:02;37.90;;;16.53;;
8596;SDS011;4336;49.310;8.646;2022-12-18T04:49:28;31.77;;;16.60;;
8596;SDS011;4336;49.310;8.646;2022-12-18T04:51:54;29.47;;;14.30;;
8596;SDS011;4336;49.310;8.646;2022-12-18T04:54:20;35.50;;;15.97;;
8596;SDS011;4336;49.310;8.646;2022-12-18T04:56:47;31.00;;;16.80;;
8596;SDS011;4336;49.310;8.646;2022-12-18T04:59:13;35.53;;;16.93;;
8596;SDS011;4336;49.310;8.646;2022-12-18T05:01:39;37.23;;;16.40;;
8596;SDS011;4336;49.310;8.646;2022-12-18T05:04:05;35.57;;;17.43;;
8596;SDS011;4336;49.310;8.646;2022-12-18T05:06:31;27.73;;;15.97;;
8596;SDS011;4336;49.310;8.646;2022-12-18T05:08:58;34.57;;;16.57;;
8596;SDS011;4336;49.310;8.646;2022-12-18T05:11:24;28.47;;;16.00;;
8596;SDS011;4336;49.310;8.646;2022-12-18T05:13:50;36.43;;;16.27;;
8596;SDS011;4336;49.310;8.646;2022-12-18T05:16:16;26.80;;;15.60;;
8596;SDS011;4336;49.310;8.646;2022-12-18T05:18:42;31.03;;;15.67;;
8596;SDS011;4336;49.310;8.646;2022-12-18T05:21:09;36.13;;;16.33;;
8596;SDS011;4336;49.310;8.646;2022-12-18T05:23:35;33.33;;;16.43;;
8596;SDS011;4336;49.310;8.646;2022-12-18T05:26:02;34.13;;;16.57;;
8596;SDS011;4336;49.310;8.646;2022-12-18T05:28:29;32.30;;;17.67;;
8596;SDS011;4336;49.310;8.646;2022-12-18T05:30:56;37.60;;;17.13;;
8596;SDS011;4336;49.310;8.646;2022-12-18T05:33:23;30.73;;;16.83;;
8596;SDS011;4336;49.310;8.646;2022-12-18T05:35:56;38.63;;;17.10;;
8596;SDS011;4336;49.310;8.646;2022-12-18T05:38:23;30.40;;;16.93;;
8596;SDS011;4336;49.310;8.646;2022-12-18T05:40:50;29.37;;;16.00;;
8596;SDS011;4336;49.310;8.646;2022-12-18T05:43:17;32.87;;;15.97;;
8596;SDS011;4336;49.310;8.646;2022-12-18T05:45:44;31.33;;;17.07;;
8596;SDS011;4336;49.310;8.646;2022-12-18T05:48:13;27.40;;;14.03;;
8596;SDS011;4336;49.310;8.646;2022-12-18T05:50:40;29.63;;;15.07;;
8596;SDS011;4336;49.310;8.646;2022-12-18T05:53:06;30.93;;;16.60;;
8596;SDS011;4336;49.310;8.646;2022-12-18T05:55:36;34.40;;;16.87;;
8596;SDS011;4336;49.310;8.646;2022-12-18T05:58:03;28.93;;;15.40;;
8596;SDS011;4336;49.310;8.646;2022-12-18T06:00:30;33.97;;;17.17;;
8596;SDS011;4336;49.310;8.646;2022-12-18T06:02:57;36.27;;;18.57;;
8596;SDS011;4336;49.310;8.646;2022-12-18T06:05:24;40.20;;;20.37;;
8596;SDS011;4336;49.310;8.646;2022-12-18T06:07:50;31.30;;;17.73;;
8596;SDS011;4336;49.310;8.646;2022-12-18T06:10:16;34.80;;;17.40;;
8596;SDS011;4336;49.310;8.646;2022-12-18T06:12:42;32.90;;;18.73;;
8596;SDS011;4336;49.310;8.646;2022-12-18T06:15:09;30.73;;;18.10;;
8596;SDS011;4336;49.310;8.646;2022-12-18T06:17:35;32.67;;;17.97;;
8596;SDS011;4336;49.310;8.646;2022-12-18T06:20:01;30.83;;;16.47;;
8596;SDS011;4336;49.310;8.646;2022-12-18T06:22:28;36.63;;;19.33;;
8596;SDS011;4336;49.310;8.646;2022-12-18T06:24:56;35.57;;;17.70;;
8596;SDS011;4336;49.310;8.646;2022-12-18T06:27:22;33.47;;;19.20;;
8596;SDS011;4336;49.310;8.646;2022-12-18T06:29:48;36.33;;;17.73;;
8596;SDS011;4336;49.310;8.646;2022-12-18T06:32:14;32.60;;;18.07;;
8596;SDS011;4336;49.310;8.646;2022-12-18T06:34:40;29.80;;;17.00;;
8596;SDS011;4336;49.310;8.646;2022-12-18T06:37:06;38.13;;;18.57;;
8596;SDS011;4336;49.310;8.646;2022-12-18T06:39:32;33.57;;;17.27;;
8596;SDS011;4336;49.310;8.646;2022-12-18T06:41:58;31.43;;;18.10;;
8596;SDS011;4336;49.310;8.646;2022-12-18T06:44:25;38.83;;;18.93;;
8596;SDS011;4336;49.310;8.646;2022-12-18T06:46:51;34.17;;;18.00;;
8596;SDS011;4336;49.310;8.646;2022-12-18T06:49:17;35.60;;;17.30;;
8596;SDS011;4336;49.310;8.646;2022-12-18T06:51:43;35.50;;;19.30;;
8596;SDS011;4336;49.310;8.646;2022-12-18T06:54:09;31.37;;;16.70;;
8596;SDS011;4336;49.310;8.646;2022-12-18T06:56:35;33.13;;;17.90;;
8596;SDS011;4336;49.310;8.646;2022-12-18T06:59:01;35.40;;;19.57;;
8596;SDS011;4336;49.310;8.646;2022-12-18T07:01:28;32.90;;;17.37;;
8596;SDS011;4336;49.310;8.646;2022-12-18T07:03:54;29.40;;;18.10;;
8596;SDS011;4336;49.310;8.646;2022-12-18T07:06:21;29.87;;;17.10;;
8596;SDS011;4336;49.310;8.646;2022-12-18T07:08:48;35.90;;;18.33;;
8596;SDS011;4336;49.310;8.646;2022-12-18T07:11:14;32.67;;;17.93;;
8596;SDS011;4336;49.310;8.646;2022-12-18T07:13:41;28.73;;;16.83;;
8596;SDS011;4336;49.310;8.646;2022-12-18T07:16:08;35.93;;;19.63;;
8596;SDS011;4336;49.310;8.646;2022-12-18T07:18:34;32.57;;;18.33;;
8596;SDS011;4336;49.310;8.646;2022-12-18T07:21:04;33.97;;;17.83;;
8596;SDS011;4336;49.310;8.646;2022-12-18T07:23:31;30.43;;;16.37;;
8596;SDS011;4336;49.310;8.646;2022-12-18T07:26:04;34.63;;;17.60;;
8596;SDS011;4336;49.310;8.646;2022-12-18T07:28:31;29.23;;;16.40;;
8596;SDS011;4336;49.310;8.646;2022-12-18T07:30:58;32.97;;;17.40;;
8596;SDS011;4336;49.310;8.646;2022-12-18T07:33:24;33.10;;;17.17;;
8596;SDS011;4336;49.310;8.646;2022-12-18T07:35:50;34.40;;;17.90;;
8596;SDS011;4336;49.310;8.646;2022-12-18T07:38:17;33.87;;;18.83;;
8596;SDS011;4336;49.310;8.646;2022-12-18T07:40:43;29.77;;;17.57;;
8596;SDS011;4336;49.310;8.646;2022-12-18T07:43:09;26.43;;;16.07;;
8596;SDS011;4336;49.310;8.646;2022-12-18T07:45:35;40.33;;;17.90;;
8596;SDS011;4336;49.310;8.646;2022-12-18T07:48:01;29.20;;;16.97;;
8596;SDS011;4336;49.310;8.646;2022-12-18T07:50:27;35.07;;;18.97;;
8596;SDS011;4336;49.310;8.646;2022-12-18T07:52:53;30.67;;;16.57;;
8596;SDS011;4336;49.310;8.646;2022-12-18T07:55:19;35.03;;;16.90;;
8596;SDS011;4336;49.310;8.646;2022-12-18T07:57:45;33.53;;;17.57;;
8596;SDS011;4336;49.310;8.646;2022-12-18T08:00:12;33.53;;;17.87;;
8596;SDS011;4336;49.310;8.646;2022-12-18T08:02:38;30.87;;;16.47;;
8596;SDS011;4336;49.310;8.646;2022-12-18T08:05:04;35.37;;;15.57;;
8596;SDS011;4336;49.310;8.646;2022-12-18T08:07:31;31.03;;;16.23;;
8596;SDS011;4336;49.310;8.646;2022-12-18T08:09:57;31.77;;;17.43;;
8596;SDS011;4336;49.310;8.646;2022-12-18T08:12:23;32.33;;;18.90;;
8596;SDS011;4336;49.310;8.646;2022-12-18T08:14:49;36.40;;;18.60;;
8596;SDS011;4336;49.310;8.646;2022-12-18T08:17:15;38.77;;;18.50;;
8596;SDS011;4336;49.310;8.646;2022-12-18T08:19:41;33.47;;;17.13;;
8596;SDS011;4336;49.310;8.646;2022-12-18T08:22:07;30.47;;;15.97;;
8596;SDS011;4336;49.310;8.646;2022-12-18T08:24:33;28.97;;;16.77;;
8596;SDS011;4336;49.310;8.646;2022-12-18T08:26:59;31.43;;;15.67;;
8596;SDS011;4336;49.310;8.646;2022-12-18T08:29:25;34.83;;;17.33;;
8596;SDS011;4336;49.310;8.646;2022-12-18T08:31:51;30.17;;;16.20;;
8596;SDS011;4336;49.310;8.646;2022-12-18T08:34:18;30.63;;;17.33;;
8596;SDS011;4336;49.310;8.646;2022-12-18T08:36:44;35.40;;;18.07;;
8596;SDS011;4336;49.310;8.646;2022-12-18T08:39:10;32.83;;;19.50;;
8596;SDS011;4336;49.310;8.646;2022-12-18T08:41:36;27.20;;;16.73;;
8596;SDS011;4336;49.310;8.646;2022-12-18T08:44:02;32.90;;;17.20;;
8596;SDS011;4336;49.310;8.646;2022-12-18T08:46:47;31.07;;;17.33;;
8596;SDS011;4336;49.310;8.646;2022-12-18T08:49:13;29.07;;;17.90;;
8596;SDS011;4336;49.310;8.646;2022-12-18T08:51:40;29.33;;;17.00;;
8596;SDS011;4336;49.310;8.646;2022-12-18T08:54:06;29.27;;;17.03;;
8596;SDS011;4336;49.310;8.646;2022-12-18T08:56:33;27.67;;;17.00;;
8596;SDS011;4336;49.310;8.646;2022-12-18T08:58:59;31.87;;;16.70;;
8596;SDS011;4336;49.310;8.646;2022-12-18T09:01:25;25.80;;;16.60;;
8596;SDS011;4336;49.310;8.646;2022-12-18T09:03:51;34.40;;;17.93;;
8596;SDS011;4336;49.310;8.646;2022-12-18T09:06:18;31.53;;;18.80;;
8596;SDS011;4336;49.310;8.646;2022-12-18T09:08:44;25.87;;;15.53;;
8596;SDS011;4336;49.310;8.646;2022-12-18T09:11:15;31.07;;;17.03;;
8596;SDS011;4336;49.310;8.646;2022-12-18T09:13:41;29.57;;;16.23;;
8596;SDS011;4336;49.310;8.646;2022-12-18T09:16:07;26.23;;;16.57;;
8596;SDS011;4336;49.310;8.646;2022-12-18T09:18:33;29.70;;;16.60;;
8596;SDS011;4336;49.310;8.646;2022-12-18T09:20:59;36.03;;;17.77;;
8596;SDS011;4336;49.310;8.646;2022-12-18T09:23:26;33.40;;;17.87;;
8596;SDS011;4336;49.310;8.646;2022-12-18T09:25:52;28.93;;;16.87;;
8596;SDS011;4336;49.310;8.646;2022-12-18T09:28:24;30.93;;;17.20;;
8596;SDS011;4336;49.310;8.646;2022-12-18T09:30:50;30.83;;;17.07;;
8596;SDS011;4336;49.310;8.646;2022-12-18T09:33:16;27.57;;;17.23;;
8596;SDS011;4336;49.310;8.646;2022-12-18T09:35:43;27.33;;;17.70;;
8596;SDS011;4336;49.310;8.646;2022-12-18T09:38:14;28.70;;;16.43;;
8596;SDS011;4336;49.310;8.646;2022-12-18T09:40:41;28.93;;;17.23;;
8596;SDS011;4336;49.310;8.646;2022-12-18T09:43:09;28.67;;;15.77;;
8596;SDS011;4336;49.310;8.646;2022-12-18T09:45:42;32.87;;;19.23;;
8596;SDS011;4336;49.310;8.646;2022-12-18T09:48:21;29.17;;;16.83;;
8596;SDS011;4336;49.310;8.646;2022-12-18T09:50:48;34.93;;;17.20;;
8596;SDS011;4336;49.310;8.646;2022-12-18T09:53:22;28.40;;;16.83;;
8596;SDS011;4336;49.310;8.646;2022-12-18T09:55:49;26.00;;;15.50;;
8596;SDS011;4336;49.310;8.646;2022-12-18T10:01:02;30.30;;;16.47;;
8596;SDS011;4336;49.310;8.646;2022-12-18T10:03:28;27.87;;;17.17;;
8596;SDS011;4336;49.310;8.646;2022-12-18T10:05:58;28.17;;;16.27;;
8596;SDS011;4336;49.310;8.646;2022-12-18T10:14:01;24.37;;;14.60;;
8596;SDS011;4336;49.310;8.646;2022-12-18T10:16:36;29.47;;;15.47;;
8596;SDS011;4336;49.310;8.646;2022-12-18T10:19:11;24.83;;;15.20;;
8596;SDS011;4336;49.310;8.646;2022-12-18T10:27:37;28.90;;;15.20;;
8596;SDS011;4336;49.310;8.646;2022-12-18T10:29:56;31.43;;;17.43;;
8596;SDS011;4336;49.310;8.646;2022-12-18T10:32:29;28.70;;;17.07;;
8596;SDS011;4336;49.310;8.646;2022-12-18T10:34:56;31.33;;;17.57;;
8596;SDS011;4336;49.310;8.646;2022-12-18T10:37:24;27.33;;;15.97;;
8596;SDS011;4336;49.310;8.646;2022-12-18T10:40:04;29.33;;;16.20;;
8596;SDS011;4336;49.310;8.646;2022-12-18T10:42:32;28.83;;;16.30;;
8596;SDS011;4336;49.310;8.646;2022-12-18T10:45:03;30.33;;;16.13;;
8596;SDS011;4336;49.310;8.646;2022-12-18T10:47:29;34.93;;;17.57;;
8596;SDS011;4336;49.310;8.646;2022-12-18T10:49:55;29.50;;;17.97;;
8596;SDS011;4336;49.310;8.646;2022-12-18T10:52:23;33.87;;;16.73;;
8596;SDS011;4336;49.310;8.646;2022-12-18T10:54:51;26.40;;;17.03;;
8596;SDS011;4336;49.310;8.646;2022-12-18T10:59:57;33.43;;;17.43;;
8596;SDS011;4336;49.310;8.646;2022-12-18T11:02:28;37.07;;;18.67;;
8596;SDS011;4336;49.310;8.646;2022-12-18T11:04:59;28.03;;;16.80;;
8596;SDS011;4336;49.310;8.646;2022-12-18T11:07:25;31.43;;;17.10;;
8596;SDS011;4336;49.310;8.646;2022-12-18T11:10:03;31.07;;;16.70;;
8596;SDS011;4336;49.310;8.646;2022-12-18T11:12:29;31.47;;;18.03;;
8596;SDS011;4336;49.310;8.646;2022-12-18T11:14:59;33.30;;;18.10;;
8596;SDS011;4336;49.310;8.646;2022-12-18T11:17:29;30.90;;;17.20;;
8596;SDS011;4336;49.310;8.646;2022-12-18T11:19:56;26.47;;;16.40;;
8596;SDS011;4336;49.310;8.646;2022-12-18T11:22:24;32.97;;;19.00;;
8596;SDS011;4336;49.310;8.646;2022-12-18T11:25:38;30.70;;;17.10;;
8596;SDS011;4336;49.310;8.646;2022-12-18T11:27:39;35.33;;;17.70;;
8596;SDS011;4336;49.310;8.646;2022-12-18T11:30:09;27.30;;;16.60;;
8596;SDS011;4336;49.310;8.646;2022-12-18T11:32:37;32.60;;;17.30;;
8596;SDS011;4336;49.310;8.646;2022-12-18T11:35:08;26.13;;;15.37;;
8596;SDS011;4336;49.310;8.646;2022-12-18T11:37:36;31.80;;;16.57;;
8596;SDS011;4336;49.310;8.646;2022-12-18T11:40:19;30.23;;;16.17;;
8596;SDS011;4336;49.310;8.646;2022-12-18T11:42:51;28.67;;;15.67;;
8596;SDS011;4336;49.310;8.646;2022-12-18T11:45:24;34.47;;;16.53;;
8596;SDS011;4336;49.310;8.646;2022-12-18T11:47:57;28.10;;;16.80;;
8596;SDS011;4336;49.310;8.646;2022-12-18T11:50:25;34.10;;;18.27;;
8596;SDS011;4336;49.310;8.646;2022-12-18T11:52:51;30.30;;;17.20;;
8596;SDS011;4336;49.310;8.646;2022-12-18T11:55:27;31.13;;;18.23;;
8596;SDS011;4336;49.310;8.646;2022-12-18T12:00:21;32.93;;;16.53;;
8596;SDS011;4336;49.310;8.646;2022-12-18T12:05:32;29.53;;;16.63;;
8596;SDS011;4336;49.310;8.646;2022-12-18T12:13:00;29.60;;;17.37;;
8596;SDS011;4336;49.310;8.646;2022-12-18T12:15:51;32.70;;;16.67;;
8596;SDS011;4336;49.310;8.646;2022-12-18T12:21:28;33.77;;;19.07;;
8596;SDS011;4336;49.310;8.646;2022-12-18T12:26:22;33.73;;;19.67;;
8596;SDS011;4336;49.310;8.646;2022-12-18T12:29:07;33.10;;;17.17;;
8596;SDS011;4336;49.310;8.646;2022-12-18T12:36:46;31.87;;;18.20;;
8596;SDS011;4336;49.310;8.646;2022-12-18T12:39:16;27.97;;;17.07;;
8596;SDS011;4336;49.310;8.646;2022-12-18T12:41:44;29.43;;;16.67;;
8596;SDS011;4336;49.310;8.646;2022-12-18T12:44:31;26.23;;;15.90;;
8596;SDS011;4336;49.310;8.646;2022-12-18T12:46:59;31.33;;;16.73;;
8596;SDS011;4336;49.310;8.646;2022-12-18T12:49:29;31.10;;;17.43;;
8596;SDS011;4336;49.310;8.646;2022-12-18T12:54:25;33.37;;;16.47;;
8596;SDS011;4336;49.310;8.646;2022-12-18T13:02:23;29.90;;;16.83;;
8596;SDS011;4336;49.310;8.646;2022-12-18T13:04:59;28.47;;;14.27;;
8596;SDS011;4336;49.310;8.646;2022-12-18T13:10:11;31.93;;;18.57;;
8596;SDS011;4336;49.310;8.646;2022-12-18T13:18:05;28.17;;;16.07;;
8596;SDS011;4336;49.310;8.646;2022-12-18T13:25:51;28.73;;;15.93;;
8596;SDS011;4336;49.310;8.646;2022-12-18T13:29:02;31.70;;;17.67;;
8596;SDS011;4336;49.310;8.646;2022-12-18T13:31:03;33.00;;;15.43;;
8596;SDS011;4336;49.310;8.646;2022-12-18T13:36:09;33.27;;;17.77;;
8596;SDS011;4336;49.310;8.646;2022-12-18T13:38:36;29.33;;;15.03;;
8596;SDS011;4336;49.310;8.646;2022-12-18T13:43:46;33.03;;;17.37;;
8596;SDS011;4336;49.310;8.646;2022-12-18T13:46:28;29.77;;;15.93;;
8596;SDS011;4336;49.310;8.646;2022-12-18T13:48:57;31.17;;;15.50;;
8596;SDS011;4336;49.310;8.646;2022-12-18T13:51:24;33.60;;;16.37;;
8596;SDS011;4336;49.310;8.646;2022-12-18T13:54:00;31.97;;;15.13;;
8596;SDS011;4336;49.310;8.646;2022-12-18T13:56:29;32.63;;;16.30;;
8596;SDS011;4336;49.310;8.646;2022-12-18T13:59:15;32.13;;;17.20;;
8596;SDS011;4336;49.310;8.646;2022-12-18T14:01:46;36.20;;;17.23;;
8596;SDS011;4336;49.310;8.646;2022-12-18T14:06:45;32.37;;;17.20;;
8596;SDS011;4336;49.310;8.646;2022-12-18T14:09:18;38.30;;;16.80;;
8596;SDS011;4336;49.310;8.646;2022-12-18T14:11:47;31.10;;;16.53;;
8596;SDS011;4336;49.310;8.646;2022-12-18T14:14:14;27.80;;;15.97;;
8596;SDS011;4336;49.310;8.646;2022-12-18T14:16:41;25.67;;;15.87;;
8596;SDS011;4336;49.310;8.646;2022-12-18T14:19:09;31.37;;;17.50;;
8596;SDS011;4336;49.310;8.646;2022-12-18T14:21:38;35.53;;;18.63;;
8596;SDS011;4336;49.310;8.646;2022-12-18T14:26:34;32.37;;;15.83;;
8596;SDS011;4336;49.310;8.646;2022-12-18T14:29:01;30.73;;;17.20;;
8596;SDS011;4336;49.310;8.646;2022-12-18T14:31:43;33.60;;;17.33;;
8596;SDS011;4336;49.310;8.646;2022-12-18T14:34:16;33.07;;;17.93;;
8596;SDS011;4336;49.310;8.646;2022-12-18T14:36:51;27.87;;;14.63;;
8596;SDS011;4336;49.310;8.646;2022-12-18T14:39:17;34.30;;;17.70;;
8596;SDS011;4336;49.310;8.646;2022-12-18T14:41:44;31.00;;;18.37;;
8596;SDS011;4336;49.310;8.646;2022-12-18T14:44:11;34.53;;;17.87;;
8596;SDS011;4336;49.310;8.646;2022-12-18T14:46:38;35.77;;;18.53;;
8596;SDS011;4336;49.310;8.646;2022-12-18T14:49:17;32.90;;;17.23;;
8596;SDS011;4336;49.310;8.646;2022-12-18T14:51:48;30.03;;;14.23;;
8596;SDS011;4336;49.310;8.646;2022-12-18T14:54:16;35.67;;;16.40;;
8596;SDS011;4336;49.310;8.646;2022-12-18T14:56:43;33.00;;;16.07;;
8596;SDS011;4336;49.310;8.646;2022-12-18T14:59:16;32.97;;;17.97;;
8596;SDS011;4336;49.310;8.646;2022-12-18T15:04:25;28.63;;;15.97;;
8596;SDS011;4336;49.310;8.646;2022-12-18T15:09:36;32.47;;;18.07;;
8596;SDS011;4336;49.310;8.646;2022-12-18T15:12:03;31.00;;;15.90;;
8596;SDS011;4336;49.310;8.646;2022-12-18T15:17:00;33.57;;;18.37;;
8596;SDS011;4336;49.310;8.646;2022-12-18T15:19:32;34.47;;;17.97;;
8596;SDS011;4336;49.310;8.646;2022-12-18T15:21:59;31.07;;;17.17;;
8596;SDS011;4336;49.310;8.646;2022-12-18T15:24:27;30.93;;;17.17;;
8596;SDS011;4336;49.310;8.646;2022-12-18T15:26:55;32.90;;;17.23;;
8596;SDS011;4336;49.310;8.646;2022-12-18T15:29:22;34.13;;;15.97;;
8596;SDS011;4336;49.310;8.646;2022-12-18T15:31:58;27.93;;;16.40;;
8596;SDS011;4336;49.310;8.646;2022-12-18T15:34:25;36.20;;;17.47;;
8596;SDS011;4336;49.310;8.646;2022-12-18T15:36:51;33.13;;;17.40;;
8596;SDS011;4336;49.310;8.646;2022-12-18T15:39:17;28.33;;;14.77;;
8596;SDS011;4336;49.310;8.646;2022-12-18T15:41:43;32.67;;;16.90;;
8596;SDS011;4336;49.310;8.646;2022-12-18T15:44:30;28.37;;;15.87;;
8596;SDS011;4336;49.310;8.646;2022-12-18T15:46:56;32.33;;;17.13;;
8596;SDS011;4336;49.310;8.646;2022-12-18T15:49:23;31.53;;;16.87;;
8596;SDS011;4336;49.310;8.646;2022-12-18T15:51:52;33.90;;;18.20;;
8596;SDS011;4336;49.310;8.646;2022-12-18T15:54:19;32.33;;;16.77;;
8596;SDS011;4336;49.310;8.646;2022-12-18T15:57:07;35.13;;;17.87;;
8596;SDS011;4336;49.310;8.646;2022-12-18T15:59:53;32.57;;;16.50;;
8596;SDS011;4336;49.310;8.646;2022-12-18T16:02:21;28.60;;;14.80;;
8596;SDS011;4336;49.310;8.646;2022-12-18T16:04:54;31.77;;;16.23;;
8596;SDS011;4336;49.310;8.646;2022-12-18T16:07:20;32.23;;;15.67;;
8596;SDS011;4336;49.310;8.646;2022-12-18T16:09:46;31.00;;;16.77;;
8596;SDS011;4336;49.310;8.646;2022-12-18T16:12:17;31.50;;;16.40;;
8596;SDS011;4336;49.310;8.646;2022-12-18T16:14:43;31.67;;;16.00;;
8596;SDS011;4336;49.310;8.646;2022-12-18T16:17:10;30.70;;;16.03;;
8596;SDS011;4336;49.310;8.646;2022-12-18T16:19:37;33.40;;;16.60;;
8596;SDS011;4336;49.310;8.646;2022-12-18T16:22:03;31.80;;;17.47;;
8596;SDS011;4336;49.310;8.646;2022-12-18T16:24:31;33.00;;;16.47;;
8596;SDS011;4336;49.310;8.646;2022-12-18T16:26:58;30.17;;;16.60;;
8596;SDS011;4336;49.310;8.646;2022-12-18T16:29:25;28.50;;;16.63;;
8596;SDS011;4336;49.310;8.646;2022-12-18T16:31:55;34.63;;;17.00;;
8596;SDS011;4336;49.310;8.646;2022-12-18T16:34:23;32.80;;;17.00;;
8596;SDS011;4336;49.310;8.646;2022-12-18T16:36:52;29.30;;;15.30;;
8596;SDS011;4336;49.310;8.646;2022-12-18T16:39:18;36.40;;;18.73;;
8596;SDS011;4336;49.310;8.646;2022-12-18T16:41:45;30.00;;;16.03;;